createdAt,value
2023-04-26T00:01:45.308Z,100213.06
2023-04-26T00:04:14.212Z,100211.69
2023-04-26T00:06:41.979Z,100211.16
2023-04-26T00:09:09.625Z,100212.41
2023-04-26T00:11:37.083Z,100213.84
2023-04-26T00:14:04.915Z,100211.75
2023-04-26T00:16:32.427Z,100219.97
2023-04-26T00:19:00.320Z,100216.66
2023-04-26T00:21:28.702Z,100219.44
2023-04-26T00:23:56.446Z,100227.31
2023-04-26T00:26:23.995Z,100213.44
2023-04-26T00:28:51.995Z,100212.91
2023-04-26T00:31:19.966Z,100209.56
2023-04-26T00:33:47.838Z,100197.69
2023-04-26T00:36:19.267Z,100210.84
2023-04-26T00:38:47.113Z,100214.75
2023-04-26T00:41:14.971Z,100216.84
2023-04-26T00:43:42.692Z,100227.50
2023-04-26T00:46:10.536Z,100229.75
2023-04-26T00:48:38.533Z,100228.91
2023-04-26T00:51:06.870Z,100229.03
2023-04-26T00:53:35.655Z,100221.50
2023-04-26T00:56:06.800Z,100219.13
2023-04-26T00:58:34.678Z,100221.31
2023-04-26T01:01:02.705Z,100216.19
2023-04-26T01:03:31.267Z,100219.53
2023-04-26T01:05:59.546Z,100224.81
2023-04-26T01:08:27.663Z,100231.03
2023-04-26T01:10:55.871Z,100234.91
2023-04-26T01:13:23.729Z,100230.78
2023-04-26T01:15:52.130Z,100227.16
2023-04-26T01:18:19.697Z,100243.72
2023-04-26T01:20:48.520Z,100231.13
2023-04-26T01:23:19.059Z,100234.84
2023-04-26T01:25:46.549Z,100236.31
2023-04-26T01:28:14.450Z,100229.94
2023-04-26T01:30:42.928Z,100227.28
2023-04-26T01:33:10.770Z,100233.53
2023-04-26T01:35:38.344Z,100245.25
2023-04-26T01:38:05.856Z,100250.09
2023-04-26T01:40:33.326Z,100256.25
2023-04-26T01:43:03.205Z,100293.19
2023-04-26T01:45:31.150Z,100272.00
2023-04-26T01:47:58.869Z,100263.91
2023-04-26T01:50:27.048Z,100258.44
2023-04-26T01:52:54.729Z,100244.81
2023-04-26T01:55:22.299Z,100241.16
2023-04-26T01:57:50.115Z,100236.97
2023-04-26T02:00:18.164Z,100231.94
2023-04-26T02:02:46.058Z,100234.13
2023-04-26T02:05:13.976Z,100241.84
2023-04-26T02:07:41.958Z,100252.97
2023-04-26T02:10:09.594Z,100254.72
2023-04-26T02:12:37.372Z,100246.28
2023-04-26T02:15:06.322Z,100247.34
2023-04-26T02:17:34.019Z,100237.09
2023-04-26T02:20:01.741Z,100236.28
2023-04-26T02:22:29.883Z,100238.72
2023-04-26T02:24:57.594Z,100245.50
2023-04-26T02:27:25.304Z,100243.56
2023-04-26T02:29:54.148Z,100225.63
2023-04-26T02:32:22.038Z,100236.66
2023-04-26T02:34:49.801Z,100250.09
2023-04-26T02:37:17.637Z,100245.28
2023-04-26T02:39:45.411Z,100251.44
2023-04-26T02:42:13.148Z,100245.28
2023-04-26T02:44:41.029Z,100233.31
2023-04-26T02:47:09.703Z,100229.13
2023-04-26T02:49:37.569Z,100227.78
2023-04-26T02:52:05.409Z,100226.56
2023-04-26T02:54:32.865Z,100231.47
2023-04-26T02:57:01.060Z,100235.63
2023-04-26T02:59:29.417Z,100238.13
2023-04-26T03:01:57.235Z,100245.31
2023-04-26T03:04:25.099Z,100232.56
2023-04-26T03:06:52.583Z,100242.25
2023-04-26T03:09:20.114Z,100253.06
2023-04-26T03:11:50.120Z,100263.50
2023-04-26T03:14:18.276Z,100262.59
2023-04-26T03:16:46.322Z,100263.66
2023-04-26T03:19:14.494Z,100260.59
2023-04-26T03:21:42.090Z,100252.75
2023-04-26T03:24:09.536Z,100253.56
2023-04-26T03:26:37.130Z,100247.44
2023-04-26T03:29:05.351Z,100243.88
2023-04-26T03:31:33.195Z,100243.59
2023-04-26T03:34:00.930Z,100240.84
2023-04-26T03:36:28.640Z,100238.41
2023-04-26T03:38:56.574Z,100240.38
2023-04-26T03:41:24.801Z,100249.78
2023-04-26T03:43:52.440Z,100258.59
2023-04-26T03:46:19.928Z,100265.38
2023-04-26T03:48:47.712Z,100267.22
2023-04-26T03:51:15.750Z,100263.56
2023-04-26T03:53:43.552Z,100258.69
2023-04-26T03:56:11.378Z,100266.59
2023-04-26T03:58:38.846Z,100264.91
2023-04-26T04:01:06.543Z,100259.75
2023-04-26T04:03:34.452Z,100265.63
2023-04-26T04:06:02.831Z,100269.13
2023-04-26T04:08:30.702Z,100278.94
2023-04-26T04:10:58.187Z,100282.28
2023-04-26T04:13:25.937Z,100280.22
2023-04-26T04:15:53.819Z,100293.56
2023-04-26T04:18:21.732Z,100298.41
2023-04-26T04:20:49.646Z,100298.84
2023-04-26T04:23:17.247Z,100310.59
2023-04-26T04:25:45.606Z,100317.72
2023-04-26T04:28:13.587Z,100318.91
2023-04-26T04:30:43.693Z,100315.88
2023-04-26T04:33:11.174Z,100319.94
2023-04-26T04:35:40.739Z,100310.72
2023-04-26T04:38:08.389Z,100312.44
2023-04-26T04:40:35.976Z,100314.84
2023-04-26T04:43:03.728Z,100312.19
2023-04-26T04:45:31.248Z,100314.97
2023-04-26T04:47:59.154Z,100313.50
2023-04-26T04:50:28.235Z,100313.00
2023-04-26T04:52:55.845Z,100318.34
2023-04-26T04:55:23.575Z,100303.56
2023-04-26T04:57:51.097Z,100301.50
2023-04-26T05:00:19.044Z,100299.69
2023-04-26T05:02:47.018Z,100292.78
2023-04-26T05:05:15.003Z,100287.53
2023-04-26T05:07:42.600Z,100288.69
2023-04-26T05:10:11.139Z,100286.69
2023-04-26T05:12:38.852Z,100281.16
2023-04-26T05:15:07.145Z,100291.31
2023-04-26T05:17:34.991Z,100278.47
2023-04-26T05:20:07.050Z,100268.50
2023-04-26T05:22:36.770Z,100275.41
2023-04-26T05:25:05.199Z,100279.84
2023-04-26T05:27:32.799Z,100275.44
2023-04-26T05:30:05.251Z,100279.25
2023-04-26T05:32:34.199Z,100280.09
2023-04-26T05:35:01.790Z,100277.03
2023-04-26T05:37:29.680Z,100280.34
2023-04-26T05:39:57.783Z,100283.84
2023-04-26T05:42:25.565Z,100277.09
2023-04-26T05:45:00.248Z,100279.78
2023-04-26T05:47:27.949Z,100279.78
2023-04-26T05:49:55.846Z,100275.84
2023-04-26T05:52:23.706Z,100282.88
2023-04-26T05:54:51.386Z,100280.22
2023-04-26T05:57:19.530Z,100274.22
2023-04-26T05:59:47.879Z,100275.63
2023-04-26T06:02:16.002Z,100282.03
2023-04-26T06:04:43.853Z,100284.00
2023-04-26T06:07:12.383Z,100283.56
2023-04-26T06:09:42.322Z,100289.97
2023-04-26T06:12:10.094Z,100284.84
2023-04-26T06:14:37.864Z,100274.03
2023-04-26T06:17:05.680Z,100274.84
2023-04-26T06:19:33.795Z,100278.22
2023-04-26T06:22:01.590Z,100281.19
2023-04-26T06:24:30.568Z,100282.03
2023-04-26T06:26:57.950Z,100284.34
2023-04-26T06:29:25.806Z,100287.53
2023-04-26T06:31:53.918Z,100283.97
2023-04-26T06:34:21.631Z,100282.41
2023-04-26T06:36:49.474Z,100293.69
2023-04-26T06:39:17.682Z,100301.13
2023-04-26T06:41:45.447Z,100309.41
2023-04-26T06:44:13.203Z,100301.16
2023-04-26T06:46:41.095Z,100298.22
2023-04-26T06:49:10.531Z,100297.41
2023-04-26T06:51:38.001Z,100312.94
2023-04-26T06:54:05.740Z,100311.13
2023-04-26T06:56:33.278Z,100323.88
2023-04-26T06:59:02.767Z,100319.81
2023-04-26T07:01:34.030Z,100317.81
2023-04-26T07:04:03.761Z,100317.94
2023-04-26T07:06:31.673Z,100329.03
2023-04-26T07:09:01.335Z,100324.69
2023-04-26T07:11:29.530Z,100325.81
2023-04-26T07:13:57.548Z,100330.88
2023-04-26T07:16:25.125Z,100323.69
2023-04-26T07:18:58.430Z,100326.34
2023-04-26T07:21:27.014Z,100340.34
2023-04-26T07:23:55.896Z,100335.91
2023-04-26T07:26:24.736Z,100342.47
2023-04-26T07:28:52.680Z,100339.66
2023-04-26T07:31:20.650Z,100338.69
2023-04-26T07:33:48.279Z,100347.47
2023-04-26T07:36:16.240Z,100341.88
2023-04-26T07:38:44.233Z,100346.50
2023-04-26T07:41:13.129Z,100343.94
2023-04-26T07:43:41.320Z,100339.41
2023-04-26T07:46:09.122Z,100339.19
2023-04-26T07:48:36.891Z,100339.28
2023-04-26T07:51:11.957Z,100327.94
2023-04-26T07:53:40.434Z,100330.63
2023-04-26T07:56:09.116Z,100332.44
2023-04-26T07:58:37.377Z,100331.06
2023-04-26T08:01:05.834Z,100340.75
2023-04-26T08:03:33.822Z,100338.81
2023-04-26T08:06:02.184Z,100329.22
2023-04-26T08:08:30.560Z,100333.97
2023-04-26T08:10:58.508Z,100339.75
2023-04-26T08:13:29.142Z,100342.69
2023-04-26T08:15:56.969Z,100350.41
2023-04-26T08:18:24.475Z,100344.16
2023-04-26T08:20:51.933Z,100340.59
2023-04-26T08:23:19.688Z,100341.00
2023-04-26T08:25:48.031Z,100337.84
2023-04-26T08:28:16.449Z,100342.06
2023-04-26T08:30:44.228Z,100344.66
2023-04-26T08:33:12.320Z,100340.06
2023-04-26T08:35:40.011Z,100345.03
2023-04-26T08:38:07.974Z,100342.13
2023-04-26T08:40:36.511Z,100344.88
2023-04-26T08:43:04.399Z,100349.13
2023-04-26T08:45:35.385Z,100343.66
2023-04-26T08:48:09.354Z,100348.38
2023-04-26T08:50:39.258Z,100340.59
2023-04-26T08:53:08.628Z,100336.00
2023-04-26T08:55:37.747Z,100346.66
2023-04-26T08:58:07.680Z,100353.53
2023-04-26T09:00:36.675Z,100351.16
2023-04-26T09:03:04.824Z,100358.47
2023-04-26T09:05:34.609Z,100349.31
2023-04-26T09:08:05.270Z,100356.19
2023-04-26T09:10:33.478Z,100359.25
2023-04-26T09:13:01.371Z,100366.78
2023-04-26T09:15:28.951Z,100353.91
2023-04-26T09:17:56.795Z,100357.06
2023-04-26T09:20:29.396Z,100361.09
2023-04-26T09:23:08.691Z,100360.69
2023-04-26T09:25:37.794Z,100367.03
2023-04-26T09:28:19.249Z,100361.41
2023-04-26T09:30:47.192Z,100360.41
2023-04-26T09:33:15.056Z,100360.41
2023-04-26T09:35:44.141Z,100359.81
2023-04-26T09:38:13.565Z,100353.03
2023-04-26T09:40:49.822Z,100361.03
2023-04-26T09:43:22.134Z,100369.84
2023-04-26T09:45:51.226Z,100369.69
2023-04-26T09:48:30.374Z,100369.00
2023-04-26T09:50:59.983Z,100366.38
2023-04-26T09:53:34.820Z,100365.97
2023-04-26T09:56:14.072Z,100359.25
2023-04-26T09:58:44.388Z,100354.75
2023-04-26T10:01:14.110Z,100364.44
2023-04-26T10:03:42.903Z,100359.25
2023-04-26T10:06:12.544Z,100358.88
2023-04-26T10:08:40.449Z,100367.44
2023-04-26T10:11:11.329Z,100362.50
2023-04-26T10:13:40.011Z,100366.72
2023-04-26T10:16:10.000Z,100363.16
2023-04-26T10:18:38.094Z,100364.19
2023-04-26T10:21:22.659Z,100367.78
2023-04-26T10:23:50.849Z,100362.81
2023-04-26T10:26:52.864Z,100354.13
2023-04-26T10:29:21.243Z,100350.09
2023-04-26T10:32:01.759Z,100363.25
2023-04-26T10:34:31.364Z,100360.75
2023-04-26T10:37:16.250Z,100364.59
2023-04-26T10:39:45.976Z,100367.66
2023-04-26T10:42:26.570Z,100359.16
2023-04-26T10:44:56.239Z,100362.97
2023-04-26T10:47:36.513Z,100361.72
2023-04-26T10:50:10.717Z,100357.66
2023-04-26T10:53:03.890Z,100363.53
2023-04-26T10:55:44.152Z,100359.88
2023-04-26T10:58:32.047Z,100361.13
2023-04-26T11:01:07.527Z,100353.41
2023-04-26T11:03:36.092Z,100362.31
2023-04-26T11:06:09.511Z,100369.00
2023-04-26T11:08:37.124Z,100369.50
2023-04-26T11:11:04.946Z,100370.78
2023-04-26T11:13:37.366Z,100377.13
2023-04-26T11:16:15.860Z,100380.34
2023-04-26T11:18:47.880Z,100388.78
2023-04-26T11:21:18.885Z,100376.84
2023-04-26T11:23:55.916Z,100371.13
2023-04-26T11:26:24.835Z,100370.72
2023-04-26T11:28:52.593Z,100368.03
2023-04-26T11:31:20.851Z,100367.53
2023-04-26T11:33:50.613Z,100375.38
2023-04-26T11:36:19.844Z,100368.13
2023-04-26T11:38:48.913Z,100381.59
2023-04-26T11:41:17.310Z,100377.00
2023-04-26T11:43:45.024Z,100382.31
2023-04-26T11:46:12.829Z,100384.44
2023-04-26T11:48:41.388Z,100383.31
2023-04-26T11:51:10.561Z,100379.66
2023-04-26T11:53:43.060Z,100385.41
2023-04-26T11:56:21.884Z,100384.84
2023-04-26T11:58:50.417Z,100388.03
2023-04-26T12:01:28.485Z,100396.84
2023-04-26T12:03:58.701Z,100391.38
2023-04-26T12:06:42.633Z,100393.75
2023-04-26T12:09:11.299Z,100390.16
2023-04-26T12:11:39.978Z,100390.69
2023-04-26T12:14:11.567Z,100392.06
2023-04-26T12:16:39.450Z,100391.13
2023-04-26T12:19:08.914Z,100392.69
2023-04-26T12:21:43.833Z,100389.44
2023-04-26T12:24:30.424Z,100393.25
2023-04-26T12:26:59.149Z,100392.94
2023-04-26T12:29:30.484Z,100387.78
2023-04-26T12:31:59.227Z,100387.78
2023-04-26T12:34:27.019Z,100394.38
2023-04-26T12:36:54.839Z,100401.63
2023-04-26T12:39:22.457Z,100388.75
2023-04-26T12:41:50.084Z,100393.25
2023-04-26T12:44:20.382Z,100397.31
2023-04-26T12:46:49.911Z,100392.13
2023-04-26T12:49:17.843Z,100392.84
2023-04-26T12:51:46.166Z,100391.44
2023-04-26T12:54:13.655Z,100391.00
2023-04-26T12:56:44.354Z,100391.59
2023-04-26T12:59:12.197Z,100389.47
2023-04-26T13:01:40.026Z,100402.38
2023-04-26T13:04:07.864Z,100404.75
2023-04-26T13:06:35.902Z,100399.28
2023-04-26T13:09:04.132Z,100394.69
2023-04-26T13:11:31.978Z,100401.81
2023-04-26T13:13:59.750Z,100406.13
2023-04-26T13:16:27.606Z,100407.25
2023-04-26T13:18:56.155Z,100404.75
2023-04-26T13:21:24.050Z,100394.53
2023-04-26T13:23:51.815Z,100396.34
2023-04-26T13:26:19.852Z,100396.63
2023-04-26T13:28:48.343Z,100394.13
2023-04-26T13:31:17.592Z,100405.03
2023-04-26T13:33:47.334Z,100408.50
2023-04-26T13:36:16.277Z,100410.91
2023-04-26T13:38:44.474Z,100406.84
2023-04-26T13:41:11.896Z,100413.28
2023-04-26T13:43:39.676Z,100419.44
2023-04-26T13:46:08.083Z,100423.22
2023-04-26T13:48:35.865Z,100428.41
2023-04-26T13:51:07.045Z,100427.69
2023-04-26T13:53:34.807Z,100421.69
2023-04-26T13:56:02.367Z,100422.09
2023-04-26T13:58:29.990Z,100426.03
2023-04-26T14:00:57.588Z,100426.03
2023-04-26T14:03:26.928Z,100426.88
2023-04-26T14:05:54.989Z,100428.97
2023-04-26T14:08:22.845Z,100423.09
2023-04-26T14:10:50.293Z,100426.16
2023-04-26T14:13:18.133Z,100422.25
2023-04-26T14:15:47.213Z,100428.22
2023-04-26T14:18:15.374Z,100436.66
2023-04-26T14:20:43.293Z,100436.78
2023-04-26T14:23:11.235Z,100440.56
2023-04-26T14:25:39.017Z,100432.88
2023-04-26T14:28:08.370Z,100439.31
2023-04-26T14:30:36.303Z,100437.16
2023-04-26T14:33:04.075Z,100452.53
2023-04-26T14:35:31.586Z,100449.06
2023-04-26T14:38:01.210Z,100446.69
2023-04-26T14:40:30.443Z,100460.41
2023-04-26T14:42:58.328Z,100464.44
2023-04-26T14:45:33.532Z,100463.00
2023-04-26T14:48:14.858Z,100458.56
2023-04-26T14:50:43.089Z,100456.19
2023-04-26T14:53:10.819Z,100458.41
2023-04-26T14:55:38.580Z,100453.31
2023-04-26T14:58:06.262Z,100448.75
2023-04-26T15:00:39.019Z,100444.91
2023-04-26T15:03:06.930Z,100445.03
2023-04-26T15:05:34.889Z,100447.13
2023-04-26T15:08:02.621Z,100455.81
2023-04-26T15:10:30.376Z,100448.25
2023-04-26T15:12:57.986Z,100436.00
2023-04-26T15:15:25.514Z,100430.38
2023-04-26T15:17:53.330Z,100445.25
2023-04-26T15:20:21.658Z,100445.75
2023-04-26T15:22:49.398Z,100446.09
2023-04-26T15:25:17.282Z,100453.28
2023-04-26T15:27:46.914Z,100450.06
2023-04-26T15:30:14.928Z,100455.25
2023-04-26T15:32:43.167Z,100450.31
2023-04-26T15:35:13.705Z,100449.63
2023-04-26T15:37:41.544Z,100450.47
2023-04-26T15:40:10.579Z,100461.22
2023-04-26T15:42:39.402Z,100457.34
2023-04-26T15:45:07.574Z,100456.91
2023-04-26T15:47:36.725Z,100464.06
2023-04-26T15:50:05.149Z,100463.22
2023-04-26T15:52:38.900Z,100466.72
2023-04-26T15:55:07.731Z,100472.56
2023-04-26T15:57:36.013Z,100469.75
2023-04-26T16:00:08.096Z,100463.47
2023-04-26T16:02:36.084Z,100463.19
2023-04-26T16:05:04.664Z,100454.75
2023-04-26T16:07:32.727Z,100478.50
2023-04-26T16:10:01.130Z,100475.25
2023-04-26T16:12:28.918Z,100470.66
2023-04-26T16:14:58.228Z,100464.75
2023-04-26T16:17:26.041Z,100465.97
2023-04-26T16:19:53.638Z,100465.66
2023-04-26T16:22:21.598Z,100474.31
2023-04-26T16:24:49.354Z,100475.75
2023-04-26T16:27:17.186Z,100474.75
2023-04-26T16:29:45.130Z,100484.66
2023-04-26T16:32:13.117Z,100479.69
2023-04-26T16:34:41.061Z,100490.13
2023-04-26T16:37:08.846Z,100480.16
2023-04-26T16:39:37.258Z,100482.81
2023-04-26T16:42:05.043Z,100479.69
2023-04-26T16:44:32.922Z,100484.88
2023-04-26T16:47:01.692Z,100477.03
2023-04-26T16:49:29.501Z,100481.50
2023-04-26T16:51:59.050Z,100472.19
2023-04-26T16:54:26.851Z,100480.78
2023-04-26T16:56:54.339Z,100491.25
2023-04-26T16:59:21.782Z,100495.59
2023-04-26T17:01:49.474Z,100492.00
2023-04-26T17:04:17.370Z,100491.41
2023-04-26T17:06:45.974Z,100489.34
2023-04-26T17:09:14.061Z,100492.09
2023-04-26T17:11:43.710Z,100490.13
2023-04-26T17:14:11.996Z,100507.44
2023-04-26T17:16:39.534Z,100501.69
2023-04-26T17:19:07.217Z,100509.97
2023-04-26T17:21:35.168Z,100509.25
2023-04-26T17:24:04.057Z,100505.41
2023-04-26T17:26:31.738Z,100505.56
2023-04-26T17:28:59.192Z,100494.84
2023-04-26T17:31:27.099Z,100491.47
2023-04-26T17:33:54.624Z,100508.97
2023-04-26T17:36:22.665Z,100502.91
2023-04-26T17:38:50.390Z,100507.91
2023-04-26T17:41:18.375Z,100509.44
2023-04-26T17:43:46.590Z,100512.88
2023-04-26T17:46:15.068Z,100511.06
2023-04-26T17:48:42.599Z,100509.78
2023-04-26T17:51:11.882Z,100515.16
2023-04-26T17:53:39.483Z,100516.97
2023-04-26T17:56:09.917Z,100531.25
2023-04-26T17:58:38.057Z,100542.31
2023-04-26T18:01:05.686Z,100536.22
2023-04-26T18:03:35.758Z,100534.66
2023-04-26T18:06:04.381Z,100526.59
2023-04-26T18:08:32.233Z,100535.50
2023-04-26T18:10:59.724Z,100541.63
2023-04-26T18:13:27.201Z,100541.53
2023-04-26T18:15:55.928Z,100541.97
2023-04-26T18:18:26.422Z,100548.63
2023-04-26T18:20:55.393Z,100552.94
2023-04-26T18:23:23.708Z,100554.44
2023-04-26T18:25:51.424Z,100553.00
2023-04-26T18:28:19.000Z,100553.72
2023-04-26T18:30:46.860Z,100557.34
2023-04-26T18:33:15.148Z,100557.28
2023-04-26T18:35:43.042Z,100557.72
2023-04-26T18:38:10.924Z,100555.22
2023-04-26T18:40:43.389Z,100553.69
2023-04-26T18:43:11.850Z,100550.19
2023-04-26T18:45:40.050Z,100553.91
2023-04-26T18:48:09.107Z,100552.34
2023-04-26T18:50:36.801Z,100561.88
2023-04-26T18:53:04.574Z,100557.53
2023-04-26T18:55:32.548Z,100561.28
2023-04-26T18:58:00.339Z,100554.78
2023-04-26T19:00:28.234Z,100565.38
2023-04-26T19:02:56.085Z,100558.72
2023-04-26T19:05:24.133Z,100551.78
2023-04-26T19:07:53.489Z,100548.16
2023-04-26T19:10:21.729Z,100541.88
2023-04-26T19:12:49.804Z,100546.81
2023-04-26T19:15:18.402Z,100545.59
2023-04-26T19:17:46.749Z,100550.44
2023-04-26T19:20:15.211Z,100546.56
2023-04-26T19:22:45.229Z,100552.50
2023-04-26T19:25:14.090Z,100553.56
2023-04-26T19:27:41.930Z,100551.75
2023-04-26T19:30:09.702Z,100562.59
2023-04-26T19:32:37.600Z,100557.78
2023-04-26T19:35:06.277Z,100560.66
2023-04-26T19:37:34.058Z,100559.59
2023-04-26T19:40:02.296Z,100559.56
2023-04-26T19:42:30.244Z,100571.63
2023-04-26T19:44:57.771Z,100571.03
2023-04-26T19:47:25.523Z,100565.72
2023-04-26T19:49:54.081Z,100563.06
2023-04-26T19:52:22.701Z,100558.50
2023-04-26T19:54:54.248Z,100556.19
2023-04-26T19:57:22.406Z,100557.06
2023-04-26T19:59:50.575Z,100556.69
2023-04-26T20:02:18.536Z,100558.63
2023-04-26T20:04:46.449Z,100560.19
2023-04-26T20:07:14.576Z,100558.34
2023-04-26T20:09:42.923Z,100557.78
2023-04-26T20:12:11.090Z,100554.28
2023-04-26T20:14:39.020Z,100556.69
2023-04-26T20:17:07.122Z,100556.94
2023-04-26T20:19:35.772Z,100550.06
2023-04-26T20:22:03.678Z,100546.22
2023-04-26T20:24:33.211Z,100548.38
2023-04-26T20:27:01.942Z,100546.56
2023-04-26T20:29:29.946Z,100548.38
2023-04-26T20:31:57.837Z,100550.16
2023-04-26T20:34:25.922Z,100543.34
2023-04-26T20:36:53.885Z,100537.97
2023-04-26T20:39:21.949Z,100544.47
2023-04-26T20:41:49.644Z,100539.75
2023-04-26T20:44:17.108Z,100535.31
2023-04-26T20:46:46.072Z,100541.09
2023-04-26T20:49:14.312Z,100546.66
2023-04-26T20:51:42.632Z,100539.81
2023-04-26T20:54:10.669Z,100551.00
2023-04-26T20:56:38.415Z,100554.59
2023-04-26T20:59:08.128Z,100552.56
2023-04-26T21:01:36.342Z,100552.28
2023-04-26T21:04:04.402Z,100550.81
2023-04-26T21:06:32.905Z,100550.50
2023-04-26T21:09:00.808Z,100561.22
2023-04-26T21:11:29.124Z,100555.06
2023-04-26T21:13:58.372Z,100552.19
2023-04-26T21:16:25.898Z,100552.06
2023-04-26T21:18:53.420Z,100547.97
2023-04-26T21:21:21.234Z,100548.66
2023-04-26T21:23:48.946Z,100556.94
2023-04-26T21:26:16.768Z,100567.56
2023-04-26T21:28:44.227Z,100572.53
2023-04-26T21:31:12.068Z,100578.28
2023-04-26T21:33:39.549Z,100579.94
2023-04-26T21:36:07.361Z,100575.09
2023-04-26T21:38:34.896Z,100568.72
2023-04-26T21:41:02.755Z,100577.28
2023-04-26T21:43:30.616Z,100573.88
2023-04-26T21:45:58.652Z,100569.19
2023-04-26T21:48:26.594Z,100577.75
2023-04-26T21:50:54.617Z,100570.78
2023-04-26T21:53:22.119Z,100579.06
2023-04-26T21:55:53.615Z,100574.25
2023-04-26T21:58:21.751Z,100577.84
2023-04-26T22:00:50.518Z,100589.97
2023-04-26T22:03:19.083Z,100591.41
2023-04-26T22:05:46.831Z,100589.50
2023-04-26T22:08:14.641Z,100587.78
2023-04-26T22:10:42.134Z,100590.44
2023-04-26T22:13:09.640Z,100584.91
2023-04-26T22:15:37.274Z,100588.72
2023-04-26T22:18:04.924Z,100584.13
2023-04-26T22:20:32.412Z,100592.28
2023-04-26T22:22:59.979Z,100590.03
2023-04-26T22:25:27.734Z,100590.25
2023-04-26T22:27:55.525Z,100597.78
2023-04-26T22:30:25.799Z,100594.16
2023-04-26T22:32:57.376Z,100597.72
2023-04-26T22:35:26.341Z,100593.22
2023-04-26T22:37:54.665Z,100602.56
2023-04-26T22:40:22.446Z,100598.28
2023-04-26T22:42:50.117Z,100591.28
2023-04-26T22:45:17.672Z,100603.66
2023-04-26T22:47:45.211Z,100597.63
2023-04-26T22:50:12.748Z,100618.84
2023-04-26T22:52:40.597Z,100628.19
2023-04-26T22:55:08.766Z,100623.03
2023-04-26T22:57:37.482Z,100622.91
2023-04-26T23:00:06.408Z,100625.94
2023-04-26T23:02:34.271Z,100629.13
2023-04-26T23:05:01.851Z,100629.16
2023-04-26T23:07:29.423Z,100630.72
2023-04-26T23:09:57.167Z,100620.91
2023-04-26T23:12:24.881Z,100620.38
2023-04-26T23:14:52.446Z,100618.25
2023-04-26T23:17:20.435Z,100629.78
2023-04-26T23:19:48.090Z,100630.91
2023-04-26T23:22:15.780Z,100634.66
2023-04-26T23:24:43.302Z,100639.97
2023-04-26T23:27:11.039Z,100632.47
2023-04-26T23:29:38.664Z,100640.91
2023-04-26T23:32:06.211Z,100636.56
2023-04-26T23:34:34.099Z,100651.78
2023-04-26T23:37:07.844Z,100655.56
2023-04-26T23:39:36.577Z,100659.19
2023-04-26T23:42:04.473Z,100661.19
2023-04-26T23:44:32.207Z,100661.50
2023-04-26T23:47:00.151Z,100660.97
2023-04-26T23:49:27.898Z,100654.28
2023-04-26T23:51:55.517Z,100664.78
2023-04-26T23:54:23.237Z,100656.53
2023-04-26T23:56:50.734Z,100662.03
2023-04-26T23:59:18.314Z,100670.72
